Terminal Aerodrome Forecast
Issued by NWS

Home | Current Version | Previous Version | Text Only | Print | Product List | Glossary On
Versions: 1 2 3 4 5 6 7 8 9 10 11 12 13 14 15 16 17 18 19 20 21 22
469
FTUS41 KBTV 072041 AAA
TAFSLK
TAF AMD
KSLK 072041Z 0721/0818 08008KT P6SM OVC035
      TEMPO 0721/0724 BKN028
     FM080000 06003KT P6SM OVC030=

USA.gov is the U.S. government's official web portal to all federal, state and local government web resources and services.